sensor_id;sensor_type;location;lat;lon;timestamp;pressure;altitude;pressure_sealevel;temperature;humidity
44457;BME280;30159;49.316;8.558;2022-10-31T02:06:46;100839.66;;;11.89;100.00
44457;BME280;30159;49.316;8.558;2022-10-31T02:09:14;100850.97;;;11.86;100.00
44457;BME280;30159;49.316;8.558;2022-10-31T02:11:42;100840.16;;;11.86;100.00
44457;BME280;30159;49.316;8.558;2022-10-31T02:14:09;100843.16;;;11.90;100.00
44457;BME280;30159;49.316;8.558;2022-10-31T02:16:36;100810.00;;;11.64;100.00
44457;BME280;30159;49.316;8.558;2022-10-31T02:19:03;100843.44;;;11.88;100.00
44457;BME280;30159;49.316;8.558;2022-10-31T02:21:41;100841.78;;;11.92;100.00
44457;BME280;30159;49.316;8.558;2022-10-31T02:24:34;100843.44;;;11.88;100.00
44457;BME280;30159;49.316;8.558;2022-10-31T02:27:37;100832.88;;;11.81;100.00
44457;BME280;30159;49.316;8.558;2022-10-31T02:30:12;100839.34;;;11.86;100.00
44457;BME280;30159;49.316;8.558;2022-10-31T02:32:47;100837.47;;;11.81;100.00
44457;BME280;30159;49.316;8.558;2022-10-31T02:35:26;100828.84;;;11.79;100.00
44457;BME280;30159;49.316;8.558;2022-10-31T02:37:59;100826.66;;;11.81;100.00
44457;BME280;30159;49.316;8.558;2022-10-31T02:40:33;100823.16;;;11.80;100.00
44457;BME280;30159;49.316;8.558;2022-10-31T02:43:05;100836.41;;;11.77;100.00
44457;BME280;30159;49.316;8.558;2022-10-31T02:45:36;100833.19;;;11.75;100.00
44457;BME280;30159;49.316;8.558;2022-10-31T02:48:09;100833.72;;;11.72;100.00
44457;BME280;30159;49.316;8.558;2022-10-31T02:50:39;100825.09;;;11.70;100.00
44457;BME280;30159;49.316;8.558;2022-10-31T02:53:08;100825.09;;;11.70;100.00
44457;BME280;30159;49.316;8.558;2022-10-31T02:55:51;100827.25;;;11.68;100.00
44457;BME280;30159;49.316;8.558;2022-10-31T02:58:21;100825.13;;;11.65;100.00
44457;BME280;30159;49.316;8.558;2022-10-31T03:01:05;100825.13;;;11.65;100.00
44457;BME280;30159;49.316;8.558;2022-10-31T03:03:43;100826.22;;;11.64;100.00
44457;BME280;30159;49.316;8.558;2022-10-31T03:06:19;100823.25;;;11.60;100.00
44457;BME280;30159;49.316;8.558;2022-10-31T03:08:55;100825.13;;;11.59;100.00
44457;BME280;30159;49.316;8.558;2022-10-31T03:11:31;100837.84;;;11.59;100.00
44457;BME280;30159;49.316;8.558;2022-10-31T03:14:01;100819.75;;;11.54;100.00
44457;BME280;30159;49.316;8.558;2022-10-31T03:16:37;100827.00;;;11.64;100.00
44457;BME280;30159;49.316;8.558;2022-10-31T03:19:08;100823.81;;;11.52;100.00
44457;BME280;30159;49.316;8.558;2022-10-31T03:21:40;100834.84;;;11.60;100.00
44457;BME280;30159;49.316;8.558;2022-10-31T03:24:09;100827.06;;;11.54;100.00
44457;BME280;30159;49.316;8.558;2022-10-31T03:26:41;100828.94;;;11.53;100.00
44457;BME280;30159;49.316;8.558;2022-10-31T03:29:10;100784.19;;;11.22;100.00
44457;BME280;30159;49.316;8.558;2022-10-31T03:31:40;100830.03;;;11.52;100.00
44457;BME280;30159;49.316;8.558;2022-10-31T03:34:12;100833.53;;;11.53;100.00
44457;BME280;30159;49.316;8.558;2022-10-31T03:36:40;100833.25;;;11.54;100.00
44457;BME280;30159;49.316;8.558;2022-10-31T03:39:12;100833.81;;;11.56;100.00
44457;BME280;30159;49.316;8.558;2022-10-31T03:41:42;100784.97;;;11.27;100.00
44457;BME280;30159;49.316;8.558;2022-10-31T03:44:13;100786.09;;;11.26;100.00
44457;BME280;30159;49.316;8.558;2022-10-31T03:46:41;100827.34;;;11.47;100.00
44457;BME280;30159;49.316;8.558;2022-10-31T03:49:10;100834.09;;;11.50;100.00
44457;BME280;30159;49.316;8.558;2022-10-31T03:51:40;100824.09;;;11.50;100.00
44457;BME280;30159;49.316;8.558;2022-10-31T03:54:14;100820.81;;;11.53;100.00
44457;BME280;30159;49.316;8.558;2022-10-31T03:56:48;100819.47;;;11.56;100.00
44457;BME280;30159;49.316;8.558;2022-10-31T03:59:20;100822.72;;;11.53;100.00
44457;BME280;30159;49.316;8.558;2022-10-31T04:01:50;100812.72;;;11.53;100.00
44457;BME280;30159;49.316;8.558;2022-10-31T04:04:20;100752.66;;;11.12;100.00
44457;BME280;30159;49.316;8.558;2022-10-31T04:06:47;100813.25;;;11.55;100.00
44457;BME280;30159;49.316;8.558;2022-10-31T04:09:16;100818.94;;;11.54;100.00
44457;BME280;30159;49.316;8.558;2022-10-31T04:11:50;100803.56;;;11.49;100.00
44457;BME280;30159;49.316;8.558;2022-10-31T04:14:17;100808.41;;;11.52;100.00
44457;BME280;30159;49.316;8.558;2022-10-31T04:16:44;100810.56;;;11.50;100.00
44457;BME280;30159;49.316;8.558;2022-10-31T04:19:11;100817.59;;;11.51;100.00
44457;BME280;30159;49.316;8.558;2022-10-31T04:21:39;100818.66;;;11.55;100.00
44457;BME280;30159;49.316;8.558;2022-10-31T04:24:08;100817.31;;;11.53;100.00
44457;BME280;30159;49.316;8.558;2022-10-31T04:26:35;100804.91;;;11.47;100.00
44457;BME280;30159;49.316;8.558;2022-10-31T04:29:01;100733.19;;;11.05;100.00
44457;BME280;30159;49.316;8.558;2022-10-31T04:31:28;100816.78;;;11.51;100.00
44457;BME280;30159;49.316;8.558;2022-10-31T04:33:54;100807.38;;;11.43;100.00
44457;BME280;30159;49.316;8.558;2022-10-31T04:36:21;100816.28;;;11.38;100.00
44457;BME280;30159;49.316;8.558;2022-10-31T04:38:49;100820.34;;;11.36;100.00
44457;BME280;30159;49.316;8.558;2022-10-31T04:41:15;100817.63;;;11.41;100.00
44457;BME280;30159;49.316;8.558;2022-10-31T04:43:41;100822.22;;;11.41;100.00
44457;BME280;30159;49.316;8.558;2022-10-31T04:46:08;100825.19;;;11.39;100.00
44457;BME280;30159;49.316;8.558;2022-10-31T04:48:34;100717.88;;;10.74;100.00
44457;BME280;30159;49.316;8.558;2022-10-31T04:51:02;100819.78;;;11.39;100.00
44457;BME280;30159;49.316;8.558;2022-10-31T04:53:28;100821.41;;;11.35;100.00
44457;BME280;30159;49.316;8.558;2022-10-31T04:55:57;100821.94;;;11.37;100.00
44457;BME280;30159;49.316;8.558;2022-10-31T04:58:24;100816.56;;;11.32;100.00
44457;BME280;30159;49.316;8.558;2022-10-31T05:00:51;100820.63;;;11.29;100.00
44457;BME280;30159;49.316;8.558;2022-10-31T05:03:18;100826.28;;;11.28;100.00
44457;BME280;30159;49.316;8.558;2022-10-31T05:05:45;100829.00;;;11.28;100.00
44457;BME280;30159;49.316;8.558;2022-10-31T05:08:11;100830.63;;;11.29;100.00
44457;BME280;30159;49.316;8.558;2022-10-31T05:10:37;100831.69;;;11.28;100.00
44457;BME280;30159;49.316;8.558;2022-10-31T05:13:05;100836.56;;;11.26;100.00
44457;BME280;30159;49.316;8.558;2022-10-31T05:15:32;100834.16;;;11.14;100.00
44457;BME280;30159;49.316;8.558;2022-10-31T05:17:59;100831.47;;;11.09;100.00
44457;BME280;30159;49.316;8.558;2022-10-31T05:20:27;100827.13;;;11.13;100.00
44457;BME280;30159;49.316;8.558;2022-10-31T05:22:56;100827.41;;;11.16;100.00
44457;BME280;30159;49.316;8.558;2022-10-31T05:25:24;100833.06;;;11.20;100.00
44457;BME280;30159;49.316;8.558;2022-10-31T05:27:52;100780.19;;;10.99;100.00
44457;BME280;30159;49.316;8.558;2022-10-31T05:30:23;100815.56;;;11.07;100.00
44457;BME280;30159;49.316;8.558;2022-10-31T05:32:50;100802.56;;;11.04;100.00
44457;BME280;30159;49.316;8.558;2022-10-31T05:35:18;100792.88;;;10.98;100.00
44457;BME280;30159;49.316;8.558;2022-10-31T05:37:45;100804.22;;;10.95;100.00
44457;BME280;30159;49.316;8.558;2022-10-31T05:40:13;100807.47;;;10.92;100.00
44457;BME280;30159;49.316;8.558;2022-10-31T05:42:41;100816.91;;;10.89;100.00
44457;BME280;30159;49.316;8.558;2022-10-31T05:45:09;100790.19;;;10.78;100.00
44457;BME280;30159;49.316;8.558;2022-10-31T05:47:37;100674.22;;;10.06;100.00
44457;BME280;30159;49.316;8.558;2022-10-31T05:50:04;100805.56;;;10.92;100.00
44457;BME280;30159;49.316;8.558;2022-10-31T05:52:31;100800.97;;;10.83;100.00
44457;BME280;30159;49.316;8.558;2022-10-31T05:54:58;100820.94;;;10.76;100.00
44457;BME280;30159;49.316;8.558;2022-10-31T05:57:24;100796.41;;;10.68;100.00
44457;BME280;30159;49.316;8.558;2022-10-31T05:59:51;100689.28;;;9.91;100.00
44457;BME280;30159;49.316;8.558;2022-10-31T06:02:18;100806.09;;;10.74;100.00
44457;BME280;30159;49.316;8.558;2022-10-31T06:04:46;100815.56;;;10.71;100.00
44457;BME280;30159;49.316;8.558;2022-10-31T06:07:13;100809.63;;;10.64;100.00
44457;BME280;30159;49.316;8.558;2022-10-31T06:09:39;100823.91;;;10.65;100.00
44457;BME280;30159;49.316;8.558;2022-10-31T06:12:06;100822.84;;;10.66;100.00
44457;BME280;30159;49.316;8.558;2022-10-31T06:14:32;100823.66;;;10.71;100.00
44457;BME280;30159;49.316;8.558;2022-10-31T06:16:59;100828.50;;;10.74;100.00
44457;BME280;30159;49.316;8.558;2022-10-31T06:19:25;100824.72;;;10.75;100.00
44457;BME280;30159;49.316;8.558;2022-10-31T06:21:53;100823.66;;;10.76;100.00
44457;BME280;30159;49.316;8.558;2022-10-31T06:24:20;100826.88;;;10.79;100.00
44457;BME280;30159;49.316;8.558;2022-10-31T06:26:46;100820.97;;;10.82;100.00
44457;BME280;30159;49.316;8.558;2022-10-31T06:29:13;100818.78;;;10.84;100.00
44457;BME280;30159;49.316;8.558;2022-10-31T06:31:39;100818.50;;;10.90;100.00
44457;BME280;30159;49.316;8.558;2022-10-31T06:34:06;100813.38;;;10.99;100.00
44457;BME280;30159;49.316;8.558;2022-10-31T06:36:32;100809.63;;;11.05;100.00
44457;BME280;30159;49.316;8.558;2022-10-31T06:39:01;100799.59;;;11.16;100.00
44457;BME280;30159;49.316;8.558;2022-10-31T06:41:27;100800.16;;;11.03;100.00
44457;BME280;30159;49.316;8.558;2022-10-31T06:43:54;100806.59;;;11.22;100.00
44457;BME280;30159;49.316;8.558;2022-10-31T06:46:20;100810.88;;;11.38;100.00
44457;BME280;30159;49.316;8.558;2022-10-31T06:48:47;100809.00;;;11.34;100.00
44457;BME280;30159;49.316;8.558;2022-10-31T06:51:13;100809.75;;;11.55;100.00
44457;BME280;30159;49.316;8.558;2022-10-31T06:53:40;100796.53;;;11.58;100.00
44457;BME280;30159;49.316;8.558;2022-10-31T06:56:08;100807.81;;;11.71;100.00
44457;BME280;30159;49.316;8.558;2022-10-31T06:58:34;100814.78;;;11.77;100.00
44457;BME280;30159;49.316;8.558;2022-10-31T07:01:01;100802.38;;;11.76;100.00
44457;BME280;30159;49.316;8.558;2022-10-31T07:03:27;100814.22;;;11.90;100.00
44457;BME280;30159;49.316;8.558;2022-10-31T07:05:54;100805.25;;;12.05;100.00
44457;BME280;30159;49.316;8.558;2022-10-31T07:08:21;100805.41;;;12.19;100.00
44457;BME280;30159;49.316;8.558;2022-10-31T07:10:52;100815.63;;;12.32;100.00
44457;BME280;30159;49.316;8.558;2022-10-31T07:13:20;100814.19;;;12.45;100.00
44457;BME280;30159;49.316;8.558;2022-10-31T07:15:51;100809.53;;;12.51;100.00
44457;BME280;30159;49.316;8.558;2022-10-31T07:18:17;100811.66;;;12.59;100.00
44457;BME280;30159;49.316;8.558;2022-10-31T07:20:44;100816.72;;;12.71;100.00
44457;BME280;30159;49.316;8.558;2022-10-31T07:23:11;100818.47;;;12.85;100.00
44457;BME280;30159;49.316;8.558;2022-10-31T07:25:38;100815.16;;;12.94;100.00
44457;BME280;30159;49.316;8.558;2022-10-31T07:28:04;100818.28;;;13.06;100.00
44457;BME280;30159;49.316;8.558;2022-10-31T07:30:33;100797.16;;;13.08;100.00
44457;BME280;30159;49.316;8.558;2022-10-31T07:32:59;100808.06;;;13.27;100.00
44457;BME280;30159;49.316;8.558;2022-10-31T07:35:27;100769.75;;;13.10;100.00
44457;BME280;30159;49.316;8.558;2022-10-31T07:37:54;100807.41;;;13.40;100.00
44457;BME280;30159;49.316;8.558;2022-10-31T07:40:21;100813.03;;;13.44;100.00
44457;BME280;30159;49.316;8.558;2022-10-31T07:42:51;100812.06;;;13.35;100.00
44457;BME280;30159;49.316;8.558;2022-10-31T07:45:20;100826.06;;;13.42;100.00
44457;BME280;30159;49.316;8.558;2022-10-31T07:47:49;100824.88;;;13.53;100.00
44457;BME280;30159;49.316;8.558;2022-10-31T07:50:18;100825.84;;;13.62;100.00
44457;BME280;30159;49.316;8.558;2022-10-31T07:52:45;100806.06;;;13.62;100.00
44457;BME280;30159;49.316;8.558;2022-10-31T07:55:12;100826.66;;;13.87;100.00
44457;BME280;30159;49.316;8.558;2022-10-31T07:57:41;100820.03;;;13.93;100.00
44457;BME280;30159;49.316;8.558;2022-10-31T08:00:09;100825.34;;;14.03;100.00
44457;BME280;30159;49.316;8.558;2022-10-31T08:02:36;100815.50;;;14.07;100.00
44457;BME280;30159;49.316;8.558;2022-10-31T08:05:05;100815.75;;;14.11;100.00
44457;BME280;30159;49.316;8.558;2022-10-31T08:07:36;100820.28;;;14.16;100.00
44457;BME280;30159;49.316;8.558;2022-10-31T08:10:03;100824.13;;;14.33;100.00
44457;BME280;30159;49.316;8.558;2022-10-31T08:12:29;100820.50;;;14.38;100.00
44457;BME280;30159;49.316;8.558;2022-10-31T08:14:56;100811.63;;;14.51;100.00
44457;BME280;30159;49.316;8.558;2022-10-31T08:17:22;100764.91;;;14.17;100.00
44457;BME280;30159;49.316;8.558;2022-10-31T08:19:49;100818.75;;;14.66;100.00
44457;BME280;30159;49.316;8.558;2022-10-31T08:22:17;100804.41;;;14.80;100.00
44457;BME280;30159;49.316;8.558;2022-10-31T08:24:43;100802.09;;;14.87;100.00
44457;BME280;30159;49.316;8.558;2022-10-31T08:27:10;100805.03;;;14.90;100.00
44457;BME280;30159;49.316;8.558;2022-10-31T08:29:36;100803.25;;;15.00;100.00
44457;BME280;30159;49.316;8.558;2022-10-31T08:32:03;100808.50;;;15.10;100.00
44457;BME280;30159;49.316;8.558;2022-10-31T08:34:30;100806.13;;;15.22;100.00
44457;BME280;30159;49.316;8.558;2022-10-31T08:36:56;100799.69;;;15.32;100.00
44457;BME280;30159;49.316;8.558;2022-10-31T08:39:25;100800.66;;;15.50;100.00
44457;BME280;30159;49.316;8.558;2022-10-31T08:41:51;100792.91;;;15.57;100.00
44457;BME280;30159;49.316;8.558;2022-10-31T08:44:18;100796.75;;;15.70;100.00
44457;BME280;30159;49.316;8.558;2022-10-31T08:46:44;100797.97;;;15.77;100.00
44457;BME280;30159;49.316;8.558;2022-10-31T08:49:11;100747.19;;;15.59;100.00
44457;BME280;30159;49.316;8.558;2022-10-31T08:51:38;100791.66;;;16.05;100.00
44457;BME280;30159;49.316;8.558;2022-10-31T08:54:04;100789.03;;;16.13;100.00
44457;BME280;30159;49.316;8.558;2022-10-31T08:56:32;100798.47;;;16.30;100.00
44457;BME280;30159;49.316;8.558;2022-10-31T08:58:59;100788.78;;;16.23;100.00
44457;BME280;30159;49.316;8.558;2022-10-31T09:01:26;100791.09;;;16.30;100.00
44457;BME280;30159;49.316;8.558;2022-10-31T09:03:52;100787.44;;;16.35;100.00
44457;BME280;30159;49.316;8.558;2022-10-31T09:06:19;100789.78;;;16.50;100.00
44457;BME280;30159;49.316;8.558;2022-10-31T09:08:45;100788.78;;;16.69;100.00
44457;BME280;30159;49.316;8.558;2022-10-31T09:11:12;100787.94;;;16.82;100.00
44457;BME280;30159;49.316;8.558;2022-10-31T09:13:40;100779.97;;;16.85;100.00
44457;BME280;30159;49.316;8.558;2022-10-31T09:16:06;100782.91;;;16.98;100.00
44457;BME280;30159;49.316;8.558;2022-10-31T09:18:33;100783.47;;;17.09;100.00
44457;BME280;30159;49.316;8.558;2022-10-31T09:21:00;100786.78;;;17.05;100.00
44457;BME280;30159;49.316;8.558;2022-10-31T09:23:27;100763.69;;;16.49;100.00
44457;BME280;30159;49.316;8.558;2022-10-31T09:25:54;100783.72;;;16.76;100.00
44457;BME280;30159;49.316;8.558;2022-10-31T09:28:22;100785.34;;;16.77;100.00
44457;BME280;30159;49.316;8.558;2022-10-31T09:30:52;100783.66;;;16.90;100.00
44457;BME280;30159;49.316;8.558;2022-10-31T09:33:19;100769.94;;;16.50;100.00
44457;BME280;30159;49.316;8.558;2022-10-31T09:35:46;100778.66;;;16.60;100.00
44457;BME280;30159;49.316;8.558;2022-10-31T09:38:14;100775.53;;;16.76;100.00
44457;BME280;30159;49.316;8.558;2022-10-31T09:40:42;100780.13;;;16.67;100.00
44457;BME280;30159;49.316;8.558;2022-10-31T09:43:15;100781.06;;;16.84;100.00
44457;BME280;30159;49.316;8.558;2022-10-31T09:45:56;100770.59;;;16.78;100.00
44457;BME280;30159;49.316;8.558;2022-10-31T09:49:02;100775.47;;;16.90;100.00
44457;BME280;30159;49.316;8.558;2022-10-31T09:51:33;100772.81;;;16.98;100.00
44457;BME280;30159;49.316;8.558;2022-10-31T09:54:04;100768.84;;;17.04;100.00
44457;BME280;30159;49.316;8.558;2022-10-31T09:56:33;100770.72;;;16.95;100.00
44457;BME280;30159;49.316;8.558;2022-10-31T09:59:02;100773.56;;;16.68;100.00
44457;BME280;30159;49.316;8.558;2022-10-31T10:01:39;100763.03;;;16.75;100.00
44457;BME280;30159;49.316;8.558;2022-10-31T10:04:24;100768.41;;;17.11;100.00
44457;BME280;30159;49.316;8.558;2022-10-31T10:06:54;100764.53;;;17.12;100.00
44457;BME280;30159;49.316;8.558;2022-10-31T10:09:25;100758.19;;;17.34;100.00
44457;BME280;30159;49.316;8.558;2022-10-31T10:11:59;100756.75;;;17.28;100.00
44457;BME280;30159;49.316;8.558;2022-10-31T10:14:39;100749.81;;;17.22;100.00
44457;BME280;30159;49.316;8.558;2022-10-31T10:17:17;100739.69;;;17.14;100.00
44457;BME280;30159;49.316;8.558;2022-10-31T10:20:01;100732.78;;;17.08;100.00
44457;BME280;30159;49.316;8.558;2022-10-31T10:22:37;100740.84;;;17.21;100.00
44457;BME280;30159;49.316;8.558;2022-10-31T10:25:16;100738.31;;;17.25;100.00
44457;BME280;30159;49.316;8.558;2022-10-31T10:27:56;100737.69;;;17.45;100.00
44457;BME280;30159;49.316;8.558;2022-10-31T10:30:30;100736.63;;;17.64;100.00
44457;BME280;30159;49.316;8.558;2022-10-31T10:33:05;100735.13;;;17.40;99.76
44457;BME280;30159;49.316;8.558;2022-10-31T10:35:38;100731.63;;;17.48;100.00
44457;BME280;30159;49.316;8.558;2022-10-31T10:38:15;100731.63;;;17.48;100.00
44457;BME280;30159;49.316;8.558;2022-10-31T10:40:43;100717.53;;;17.55;100.00
44457;BME280;30159;49.316;8.558;2022-10-31T10:43:22;100721.97;;;17.42;100.00
44457;BME280;30159;49.316;8.558;2022-10-31T10:46:04;100711.72;;;17.39;100.00
44457;BME280;30159;49.316;8.558;2022-10-31T10:48:54;100713.31;;;17.40;100.00
44457;BME280;30159;49.316;8.558;2022-10-31T10:51:23;100664.81;;;17.20;100.00
44457;BME280;30159;49.316;8.558;2022-10-31T10:54:04;100673.88;;;17.46;99.50
44457;BME280;30159;49.316;8.558;2022-10-31T10:56:57;100709.06;;;17.83;100.00
44457;BME280;30159;49.316;8.558;2022-10-31T10:59:26;100713.06;;;17.94;99.35
44457;BME280;30159;49.316;8.558;2022-10-31T11:01:54;100713.56;;;17.96;98.40
44457;BME280;30159;49.316;8.558;2022-10-31T11:04:29;100698.47;;;17.99;99.27
44457;BME280;30159;49.316;8.558;2022-10-31T11:07:00;100684.63;;;18.30;97.90
44457;BME280;30159;49.316;8.558;2022-10-31T11:09:26;100680.41;;;18.41;96.61
44457;BME280;30159;49.316;8.558;2022-10-31T11:11:54;100685.69;;;18.55;94.95
44457;BME280;30159;49.316;8.558;2022-10-31T11:14:22;100668.28;;;18.68;95.27
44457;BME280;30159;49.316;8.558;2022-10-31T11:16:53;100668.72;;;19.17;94.93
44457;BME280;30159;49.316;8.558;2022-10-31T11:19:24;100672.91;;;19.15;90.62
44457;BME280;30159;49.316;8.558;2022-10-31T11:21:53;100666.44;;;18.90;91.36
44457;BME280;30159;49.316;8.558;2022-10-31T11:24:21;100667.13;;;18.87;92.52
44457;BME280;30159;49.316;8.558;2022-10-31T11:26:49;100653.81;;;19.06;91.32
44457;BME280;30159;49.316;8.558;2022-10-31T11:29:20;100645.31;;;19.29;89.46
44457;BME280;30159;49.316;8.558;2022-10-31T11:31:50;100648.81;;;19.38;88.62
44457;BME280;30159;49.316;8.558;2022-10-31T11:34:27;100652.22;;;19.56;88.17
44457;BME280;30159;49.316;8.558;2022-10-31T11:37:02;100647.22;;;19.58;87.61
44457;BME280;30159;49.316;8.558;2022-10-31T11:39:29;100644.81;;;19.98;86.08
44457;BME280;30159;49.316;8.558;2022-10-31T11:41:59;100645.22;;;20.21;84.98
44457;BME280;30159;49.316;8.558;2022-10-31T11:44:29;100636.09;;;20.30;83.08
44457;BME280;30159;49.316;8.558;2022-10-31T11:46:59;100627.31;;;20.36;83.44
44457;BME280;30159;49.316;8.558;2022-10-31T11:49:30;100624.16;;;20.47;83.78
44457;BME280;30159;49.316;8.558;2022-10-31T11:52:00;100620.75;;;20.62;85.25
44457;BME280;30159;49.316;8.558;2022-10-31T11:54:29;100606.94;;;20.71;85.75
44457;BME280;30159;49.316;8.558;2022-10-31T11:56:57;100606.97;;;20.25;88.10
44457;BME280;30159;49.316;8.558;2022-10-31T11:59:26;100586.25;;;19.91;88.97
44457;BME280;30159;49.316;8.558;2022-10-31T12:01:55;100608.69;;;20.17;88.66
44457;BME280;30159;49.316;8.558;2022-10-31T12:04:38;100604.72;;;20.39;88.66
44457;BME280;30159;49.316;8.558;2022-10-31T12:07:07;100603.81;;;20.48;89.75
44457;BME280;30159;49.316;8.558;2022-10-31T12:09:35;100592.66;;;20.65;89.26
44457;BME280;30159;49.316;8.558;2022-10-31T12:15:03;100600.78;;;20.16;90.74
44457;BME280;30159;49.316;8.558;2022-10-31T12:17:37;100598.19;;;20.19;91.16
44457;BME280;30159;49.316;8.558;2022-10-31T12:20:13;100611.03;;;20.07;92.09
44457;BME280;30159;49.316;8.558;2022-10-31T12:22:52;100456.19;;;18.85;92.95
44457;BME280;30159;49.316;8.558;2022-10-31T12:25:31;100603.22;;;19.84;94.13
44457;BME280;30159;49.316;8.558;2022-10-31T12:28:14;100611.47;;;19.96;93.76
44457;BME280;30159;49.316;8.558;2022-10-31T12:30:58;100604.41;;;19.95;92.57
44457;BME280;30159;49.316;8.558;2022-10-31T12:33:41;100601.56;;;20.04;93.54
44457;BME280;30159;49.316;8.558;2022-10-31T12:36:24;100596.91;;;20.05;93.76
44457;BME280;30159;49.316;8.558;2022-10-31T12:39:04;100566.09;;;19.95;92.81
44457;BME280;30159;49.316;8.558;2022-10-31T12:41:44;100577.44;;;19.64;91.70
44457;BME280;30159;49.316;8.558;2022-10-31T12:44:22;100576.53;;;19.18;94.39
44457;BME280;30159;49.316;8.558;2022-10-31T12:47:05;100571.88;;;18.98;96.90
44457;BME280;30159;49.316;8.558;2022-10-31T12:49:47;100545.38;;;18.89;97.62
44457;BME280;30159;49.316;8.558;2022-10-31T12:52:32;100547.81;;;19.33;95.89
44457;BME280;30159;49.316;8.558;2022-10-31T12:55:12;100556.00;;;19.12;95.47
44457;BME280;30159;49.316;8.558;2022-10-31T12:57:44;100553.19;;;19.42;96.30
44457;BME280;30159;49.316;8.558;2022-10-31T13:00:13;100529.41;;;19.54;93.34
44457;BME280;30159;49.316;8.558;2022-10-31T13:02:46;100518.47;;;19.75;91.51
44457;BME280;30159;49.316;8.558;2022-10-31T13:05:18;100503.50;;;19.73;90.97
44457;BME280;30159;49.316;8.558;2022-10-31T13:07:50;100463.25;;;19.40;92.46
44457;BME280;30159;49.316;8.558;2022-10-31T13:10:24;100489.97;;;19.55;92.63
44457;BME280;30159;49.316;8.558;2022-10-31T13:12:54;100491.66;;;19.48;92.68
44457;BME280;30159;49.316;8.558;2022-10-31T13:15:27;100492.94;;;19.63;92.64
44457;BME280;30159;49.316;8.558;2022-10-31T13:17:56;100486.06;;;19.77;91.73
44457;BME280;30159;49.316;8.558;2022-10-31T13:20:27;100475.81;;;19.87;91.70
44457;BME280;30159;49.316;8.558;2022-10-31T13:22:58;100496.63;;;20.00;91.01
44457;BME280;30159;49.316;8.558;2022-10-31T13:25:33;100462.69;;;19.92;91.20
44457;BME280;30159;49.316;8.558;2022-10-31T13:28:05;100475.63;;;20.16;92.50
44457;BME280;30159;49.316;8.558;2022-10-31T13:30:38;100467.03;;;19.81;90.79
44457;BME280;30159;49.316;8.558;2022-10-31T13:33:09;100461.34;;;19.98;91.45
44457;BME280;30159;49.316;8.558;2022-10-31T13:35:45;100482.91;;;20.25;90.80
44457;BME280;30159;49.316;8.558;2022-10-31T13:38:19;100488.50;;;20.40;89.48
44457;BME280;30159;49.316;8.558;2022-10-31T13:40:55;100472.41;;;20.51;89.13
44457;BME280;30159;49.316;8.558;2022-10-31T13:43:28;100496.22;;;20.88;88.42
44457;BME280;30159;49.316;8.558;2022-10-31T13:45:58;100488.56;;;20.93;87.36
44457;BME280;30159;49.316;8.558;2022-10-31T13:48:35;100508.53;;;21.06;88.02
44457;BME280;30159;49.316;8.558;2022-10-31T13:51:04;100515.53;;;21.32;87.20
44457;BME280;30159;49.316;8.558;2022-10-31T13:53:37;100512.66;;;21.28;86.06
44457;BME280;30159;49.316;8.558;2022-10-31T13:56:14;100506.75;;;21.26;84.73
44457;BME280;30159;49.316;8.558;2022-10-31T13:58:56;100507.41;;;20.95;85.02
44457;BME280;30159;49.316;8.558;2022-10-31T14:01:23;100501.38;;;20.77;85.33
44457;BME280;30159;49.316;8.558;2022-10-31T14:03:57;100492.84;;;20.54;85.60
44457;BME280;30159;49.316;8.558;2022-10-31T14:06:35;100488.53;;;20.28;85.77
44457;BME280;30159;49.316;8.558;2022-10-31T14:09:03;100491.59;;;20.27;86.64
44457;BME280;30159;49.316;8.558;2022-10-31T14:11:31;100498.22;;;20.26;86.98
44457;BME280;30159;49.316;8.558;2022-10-31T14:13:58;100479.81;;;20.14;87.10
44457;BME280;30159;49.316;8.558;2022-10-31T14:16:28;100493.19;;;20.15;87.20
44457;BME280;30159;49.316;8.558;2022-10-31T14:18:59;100490.78;;;20.02;89.38
44457;BME280;30159;49.316;8.558;2022-10-31T14:21:27;100478.78;;;19.82;87.44
44457;BME280;30159;49.316;8.558;2022-10-31T14:23:56;100471.75;;;19.59;87.89
44457;BME280;30159;49.316;8.558;2022-10-31T14:26:50;100451.75;;;19.13;89.49
44457;BME280;30159;49.316;8.558;2022-10-31T14:29:26;100467.31;;;19.01;91.35
44457;BME280;30159;49.316;8.558;2022-10-31T14:31:55;100459.59;;;19.03;91.22
44457;BME280;30159;49.316;8.558;2022-10-31T14:34:26;100458.06;;;18.93;91.60
44457;BME280;30159;49.316;8.558;2022-10-31T14:39:57;100450.38;;;18.65;93.99
44457;BME280;30159;49.316;8.558;2022-10-31T14:42:40;100451.69;;;18.59;94.78
44457;BME280;30159;49.316;8.558;2022-10-31T14:45:33;100453.00;;;18.53;95.73
44457;BME280;30159;49.316;8.558;2022-10-31T14:48:12;100428.13;;;18.46;95.41
44457;BME280;30159;49.316;8.558;2022-10-31T14:50:47;100457.28;;;18.63;95.25
44457;BME280;30159;49.316;8.558;2022-10-31T14:53:18;100467.59;;;18.57;96.76
44457;BME280;30159;49.316;8.558;2022-10-31T14:55:48;100472.03;;;18.41;99.42
44457;BME280;30159;49.316;8.558;2022-10-31T14:58:19;100472.91;;;18.32;100.00
44457;BME280;30159;49.316;8.558;2022-10-31T15:00:48;100457.91;;;18.39;100.00
44457;BME280;30159;49.316;8.558;2022-10-31T15:03:16;100461.00;;;18.37;100.00
44457;BME280;30159;49.316;8.558;2022-10-31T15:05:48;100457.41;;;18.45;100.00
44457;BME280;30159;49.316;8.558;2022-10-31T15:08:29;100449.78;;;18.30;100.00
44457;BME280;30159;49.316;8.558;2022-10-31T15:10:57;100443.78;;;18.37;100.00
44457;BME280;30159;49.316;8.558;2022-10-31T15:13:25;100445.19;;;18.43;100.00